Terminal Aerodrome Forecast
Issued by NWS

Home | Current Version | Previous Version | Text Only | Print | Product List | Glossary On
Versions: 1 2 3 4 5 6 7 8 9 10 11 12 13 14 15 16 17 18 19 20
756
FTUS43 KGRB 201521 AAA
TAFMTW
TAF AMD
KMTW 201521Z 2015/2112 14013G18KT 3SM BR OVC005
     FM201600 15012G18KT 5SM BR BKN008
     FM201700 16012G18KT P6SM BKN012
     FM202100 18012G18KT 6SM -SHRA VCTS OVC040CB
     FM210300 19004KT P6SM VCTS BKN040CB
     FM210600 25004KT P6SM BKN030 BKN120
     FM210900 34005KT 6SM BR BKN015=

USA.gov is the U.S. government's official web portal to all federal, state and local government web resources and services.